createdAt,value
2016-10-04T00:00:54.444Z,1013.33
2016-10-04T00:01:54.464Z,1013.35
2016-10-04T00:02:54.480Z,1013.36
2016-10-04T00:03:54.490Z,1013.31
2016-10-04T00:04:54.504Z,1013.33
2016-10-04T00:05:54.521Z,1013.32
2016-10-04T00:06:54.541Z,1013.33
2016-10-04T00:07:54.554Z,1013.28
2016-10-04T00:08:54.581Z,1013.31
2016-10-04T00:09:54.592Z,1013.3
2016-10-04T00:10:54.606Z,1013.25
2016-10-04T00:11:54.625Z,1013.26
2016-10-04T00:12:54.635Z,1013.26
2016-10-04T00:13:54.650Z,1013.27
2016-10-04T00:14:54.670Z,1013.27
2016-10-04T00:15:54.693Z,1013.34
2016-10-04T00:16:54.706Z,1013.32
2016-10-04T00:17:54.719Z,1013.3
2016-10-04T00:18:54.739Z,1013.28
2016-10-04T00:19:54.756Z,1013.28
2016-10-04T00:20:54.798Z,1013.26
2016-10-04T00:21:54.785Z,1013.31
2016-10-04T00:22:54.803Z,1013.3
2016-10-04T00:23:54.820Z,1013.31
2016-10-04T00:24:54.841Z,1013.3
2016-10-04T00:25:54.868Z,1013.36
2016-10-04T00:26:54.873Z,1013.4
2016-10-04T00:27:54.885Z,1013.46
2016-10-04T00:28:54.904Z,1013.46
2016-10-04T00:29:54.918Z,1013.46
2016-10-04T00:30:54.943Z,1013.45
2016-10-04T00:31:54.971Z,1013.43
2016-10-04T00:32:54.966Z,1013.48
2016-10-04T00:33:54.985Z,1013.47
2016-10-04T00:34:55.001Z,1013.51
2016-10-04T00:35:55.018Z,1013.52
2016-10-04T00:36:55.029Z,1013.56
2016-10-04T00:37:55.046Z,1013.56
2016-10-04T00:38:55.069Z,1013.6
2016-10-04T00:39:55.081Z,1013.6
2016-10-04T00:40:55.103Z,1013.6
2016-10-04T00:41:55.120Z,1013.62
2016-10-04T00:42:55.134Z,1013.64
2016-10-04T00:43:55.151Z,1013.68
2016-10-04T00:44:55.168Z,1013.7
2016-10-04T00:45:55.189Z,1013.69
2016-10-04T00:46:55.196Z,1013.73
2016-10-04T00:47:55.213Z,1013.74
2016-10-04T00:48:55.241Z,1013.77
2016-10-04T00:49:55.245Z,1013.81
2016-10-04T00:50:55.261Z,1013.81
2016-10-04T00:51:55.281Z,1013.83
2016-10-04T00:52:55.301Z,1013.8
2016-10-04T00:53:55.315Z,1013.82
2016-10-04T00:54:55.331Z,1013.79
2016-10-04T00:55:55.349Z,1013.77
2016-10-04T00:56:55.367Z,1013.77
2016-10-04T00:57:55.382Z,1013.78
2016-10-04T00:58:55.396Z,1013.82
2016-10-04T00:59:55.417Z,1013.84
2016-10-04T01:00:55.433Z,1013.85
2016-10-04T01:01:55.447Z,1013.86
2016-10-04T01:02:55.471Z,1013.88
2016-10-04T01:03:55.483Z,1013.89
2016-10-04T01:04:55.501Z,1013.84
2016-10-04T01:05:55.515Z,1013.87
2016-10-04T01:06:55.529Z,1013.9
2016-10-04T01:07:55.545Z,1013.95
2016-10-04T01:08:55.567Z,1013.93
2016-10-04T01:09:55.581Z,1013.91
2016-10-04T01:10:55.596Z,1013.91
2016-10-04T01:11:55.619Z,1013.93
2016-10-04T01:12:55.628Z,1013.89
2016-10-04T01:13:55.648Z,1013.91
2016-10-04T01:14:55.664Z,1013.94
2016-10-04T01:15:55.682Z,1013.91
2016-10-04T01:16:55.694Z,1013.91
2016-10-04T01:17:55.712Z,1013.86
2016-10-04T01:18:55.733Z,1013.89
2016-10-04T01:19:55.747Z,1013.81
2016-10-04T01:20:55.764Z,1013.85
2016-10-04T01:21:55.784Z,1013.82
2016-10-04T01:22:55.796Z,1013.79
2016-10-04T01:23:55.815Z,1013.73
2016-10-04T01:24:55.828Z,1013.75
2016-10-04T01:25:55.851Z,1013.71
2016-10-04T01:26:55.912Z,1013.76
2016-10-04T01:27:55.880Z,1013.76
2016-10-04T01:28:55.911Z,1013.76
2016-10-04T01:29:55.916Z,1013.76
2016-10-04T01:30:56.039Z,1013.76
2016-10-04T01:31:55.946Z,1013.76
2016-10-04T01:32:55.969Z,1013.74
2016-10-04T01:33:55.988Z,1013.74
2016-10-04T01:34:56.036Z,1013.73
2016-10-04T01:35:56.017Z,1013.74
2016-10-04T01:36:56.071Z,1013.73
2016-10-04T01:37:56.049Z,1013.75
2016-10-04T01:38:56.123Z,1013.79
2016-10-04T01:39:56.079Z,1013.81
2016-10-04T01:40:56.134Z,1013.82
2016-10-04T01:41:56.116Z,1013.81
2016-10-04T01:42:56.135Z,1013.79
2016-10-04T01:43:56.150Z,1013.81
2016-10-04T01:44:56.168Z,1013.78
2016-10-04T01:45:56.183Z,1013.83
2016-10-04T01:46:56.211Z,1013.78
2016-10-04T01:47:56.220Z,1013.82
2016-10-04T01:48:56.237Z,1013.81
2016-10-04T01:49:56.254Z,1013.89
2016-10-04T01:50:56.268Z,1013.87
2016-10-04T01:51:56.287Z,1013.82
2016-10-04T01:52:56.300Z,1013.84
2016-10-04T01:53:56.319Z,1013.87
2016-10-04T01:54:56.337Z,1013.87
2016-10-04T01:55:56.350Z,1013.92
2016-10-04T01:56:56.370Z,1013.91
2016-10-04T01:57:56.383Z,1013.96
2016-10-04T01:58:56.404Z,1013.94
2016-10-04T01:59:56.418Z,1013.96
2016-10-04T02:00:56.428Z,1013.93
2016-10-04T02:01:56.451Z,1013.92
2016-10-04T02:02:56.469Z,1013.92
2016-10-04T02:03:56.484Z,1013.93
2016-10-04T02:04:56.501Z,1013.93
2016-10-04T02:05:56.518Z,1013.91
2016-10-04T02:06:56.533Z,1013.85
2016-10-04T02:07:56.550Z,1013.89
2016-10-04T02:08:56.569Z,1013.91
2016-10-04T02:09:56.582Z,1013.87
2016-10-04T02:10:56.604Z,1013.89
2016-10-04T02:11:56.617Z,1013.86
2016-10-04T02:12:56.632Z,1013.92
2016-10-04T02:13:56.647Z,1013.89
2016-10-04T02:14:56.667Z,1013.91
2016-10-04T02:15:56.684Z,1013.94
2016-10-04T02:16:56.704Z,1014
2016-10-04T02:17:56.718Z,1013.97
2016-10-04T02:18:56.732Z,1013.94
2016-10-04T02:19:56.755Z,1013.91
2016-10-04T02:20:56.763Z,1013.94
2016-10-04T02:21:56.783Z,1013.95
2016-10-04T02:22:56.803Z,1013.9
2016-10-04T02:23:56.818Z,1013.96
2016-10-04T02:24:56.835Z,1013.95
2016-10-04T02:25:56.850Z,1013.98
2016-10-04T02:26:56.869Z,1013.98
2016-10-04T02:27:56.881Z,1013.99
2016-10-04T02:28:56.901Z,1013.99
2016-10-04T02:29:56.913Z,1014
2016-10-04T02:30:56.929Z,1014.05
2016-10-04T02:31:56.949Z,1014.06
2016-10-04T02:32:56.969Z,1014.06
2016-10-04T02:33:56.981Z,1014.06
2016-10-04T02:34:57.002Z,1014.05
2016-10-04T02:35:57.019Z,1014.03
2016-10-04T02:36:57.032Z,1014.07
2016-10-04T02:37:57.047Z,1014.05
2016-10-04T02:38:57.069Z,1014.06
2016-10-04T02:39:57.085Z,1014.04
2016-10-04T02:40:57.097Z,1014.09
2016-10-04T02:41:57.119Z,1014.02
2016-10-04T02:42:57.133Z,1014.02
2016-10-04T02:43:57.146Z,1014.03
2016-10-04T02:44:57.161Z,1014
2016-10-04T02:45:57.182Z,1013.97
2016-10-04T02:46:57.201Z,1014
2016-10-04T02:47:57.220Z,1013.95
2016-10-04T02:48:57.229Z,1013.95
2016-10-04T02:49:57.253Z,1013.95
2016-10-04T02:50:57.267Z,1013.96
2016-10-04T02:51:57.284Z,1014.02
2016-10-04T02:52:57.301Z,1014
2016-10-04T02:53:57.314Z,1014
2016-10-04T02:54:57.333Z,1014.03
2016-10-04T02:55:57.349Z,1014.06
2016-10-04T02:56:57.365Z,1014.02
2016-10-04T02:57:57.380Z,1014.03
2016-10-04T02:58:57.394Z,1014.06
2016-10-04T02:59:57.416Z,1014.05
2016-10-04T03:00:57.431Z,1014.08
2016-10-04T03:01:57.454Z,1014.09
2016-10-04T03:02:57.467Z,1014.09
2016-10-04T03:03:57.483Z,1014.07
2016-10-04T03:04:57.500Z,1014.01
2016-10-04T03:05:57.515Z,1014.08
2016-10-04T03:06:57.533Z,1014.05
2016-10-04T03:07:57.552Z,1014.06
2016-10-04T03:08:57.567Z,1014.08
2016-10-04T03:09:57.578Z,1014.09
2016-10-04T03:10:57.600Z,1014.12
2016-10-04T03:11:57.612Z,1014.12
2016-10-04T03:12:57.635Z,1014.11
2016-10-04T03:13:57.652Z,1014.08
2016-10-04T03:14:57.666Z,1014.12
2016-10-04T03:15:57.682Z,1014.14
2016-10-04T03:16:57.698Z,1014.15
2016-10-04T03:17:57.713Z,1014.12
2016-10-04T03:18:57.734Z,1014.14
2016-10-04T03:19:57.755Z,1014.11
2016-10-04T03:20:57.770Z,1014.14
2016-10-04T03:21:57.786Z,1014.15
2016-10-04T03:22:57.804Z,1014.24
2016-10-04T03:23:57.822Z,1014.28
2016-10-04T03:24:57.837Z,1014.24
2016-10-04T03:25:57.853Z,1014.29
2016-10-04T03:26:57.873Z,1014.28
2016-10-04T03:27:57.889Z,1014.3
2016-10-04T03:28:57.906Z,1014.25
2016-10-04T03:29:57.923Z,1014.29
2016-10-04T03:30:57.936Z,1014.31
2016-10-04T03:31:57.958Z,1014.32
2016-10-04T03:32:57.975Z,1014.31
2016-10-04T03:33:57.989Z,1014.32
2016-10-04T03:34:58.005Z,1014.34
2016-10-04T03:35:58.023Z,1014.32
2016-10-04T03:36:58.042Z,1014.32
2016-10-04T03:37:58.056Z,1014.3
2016-10-04T03:38:58.074Z,1014.32
2016-10-04T03:39:58.086Z,1014.29
2016-10-04T03:40:58.106Z,1014.33
2016-10-04T03:41:58.127Z,1014.29
2016-10-04T03:42:58.142Z,1014.33
2016-10-04T03:43:58.157Z,1014.32
2016-10-04T03:44:58.175Z,1014.35
2016-10-04T03:45:58.191Z,1014.35
2016-10-04T03:46:58.213Z,1014.34
2016-10-04T03:47:58.227Z,1014.39
2016-10-04T03:48:58.241Z,1014.38
2016-10-04T03:49:58.255Z,1014.35
2016-10-04T03:50:58.275Z,1014.37
2016-10-04T03:51:58.296Z,1014.36
2016-10-04T03:52:58.311Z,1014.39
2016-10-04T03:53:58.320Z,1014.38
2016-10-04T03:54:58.340Z,1014.43
2016-10-04T03:55:58.358Z,1014.45
2016-10-04T03:56:58.377Z,1014.49
2016-10-04T03:57:58.392Z,1014.49
2016-10-04T03:58:58.412Z,1014.48
2016-10-04T03:59:58.427Z,1014.5
2016-10-04T04:01:58.462Z,1014.52
2016-10-04T04:02:58.482Z,1014.48
2016-10-04T04:03:58.497Z,1014.47
2016-10-04T04:04:58.517Z,1014.51
2016-10-04T04:05:58.535Z,1014.48
2016-10-04T04:06:58.554Z,1014.51
2016-10-04T04:07:58.564Z,1014.5
2016-10-04T04:08:58.582Z,1014.47
2016-10-04T04:09:58.601Z,1014.48
2016-10-04T04:10:58.619Z,1014.5
2016-10-04T04:11:58.632Z,1014.47
2016-10-04T04:12:58.653Z,1014.51
2016-10-04T04:13:58.670Z,1014.53
2016-10-04T04:14:58.683Z,1014.59
2016-10-04T04:15:58.706Z,1014.6
2016-10-04T04:16:58.721Z,1014.58
2016-10-04T04:17:58.735Z,1014.58
2016-10-04T04:18:58.755Z,1014.63
2016-10-04T04:19:58.773Z,1014.63
2016-10-04T04:20:58.784Z,1014.63
2016-10-04T04:21:58.807Z,1014.56
2016-10-04T04:22:58.818Z,1014.58
2016-10-04T04:23:58.835Z,1014.61
2016-10-04T04:24:58.856Z,1014.63
2016-10-04T04:25:58.875Z,1014.62
2016-10-04T04:26:58.885Z,1014.62
2016-10-04T04:27:58.905Z,1014.61
2016-10-04T04:28:58.919Z,1014.64
2016-10-04T04:29:58.946Z,1014.65
2016-10-04T04:30:58.956Z,1014.64
2016-10-04T04:31:58.971Z,1014.65
2016-10-04T04:32:58.992Z,1014.67
2016-10-04T04:33:59.007Z,1014.65
2016-10-04T04:34:59.020Z,1014.64
2016-10-04T04:35:59.038Z,1014.65
2016-10-04T04:36:59.057Z,1014.68
2016-10-04T04:37:59.077Z,1014.67
2016-10-04T04:38:59.092Z,1014.72
2016-10-04T04:39:59.109Z,1014.71
2016-10-04T04:40:59.124Z,1014.71
2016-10-04T04:41:59.140Z,1014.72
2016-10-04T04:42:59.161Z,1014.72
2016-10-04T04:43:59.177Z,1014.78
2016-10-04T04:44:59.195Z,1014.81
2016-10-04T04:45:59.213Z,1014.77
2016-10-04T04:46:59.229Z,1014.71
2016-10-04T04:47:59.243Z,1014.78
2016-10-04T04:48:59.264Z,1014.78
2016-10-04T04:49:59.281Z,1014.81
2016-10-04T04:50:59.301Z,1014.74
2016-10-04T04:51:59.313Z,1014.76
2016-10-04T04:52:59.335Z,1014.82
2016-10-04T04:53:59.350Z,1014.82
2016-10-04T04:54:59.365Z,1014.82
2016-10-04T04:55:59.380Z,1014.9
2016-10-04T04:56:59.397Z,1014.88
2016-10-04T04:57:59.419Z,1014.89
2016-10-04T04:58:59.433Z,1014.87
2016-10-04T04:59:59.454Z,1014.91
2016-10-04T05:00:59.469Z,1014.93
2016-10-04T05:01:59.485Z,1014.95
2016-10-04T05:02:59.498Z,1014.97
2016-10-04T05:03:59.521Z,1014.99
2016-10-04T05:04:59.537Z,1014.97
2016-10-04T05:05:59.550Z,1014.98
2016-10-04T05:06:59.571Z,1014.95
2016-10-04T05:07:59.584Z,1014.93
2016-10-04T05:08:59.604Z,1014.94
2016-10-04T05:09:59.616Z,1014.96
2016-10-04T05:10:59.634Z,1014.96
2016-10-04T05:11:59.653Z,1014.99
2016-10-04T05:12:59.673Z,1014.99
2016-10-04T05:13:59.690Z,1015.01
2016-10-04T05:14:59.707Z,1015.01
2016-10-04T05:15:59.724Z,1015.02
2016-10-04T05:16:59.740Z,1015.05
2016-10-04T05:17:59.758Z,1015.1
2016-10-04T05:18:59.774Z,1015.06
2016-10-04T05:19:59.788Z,1015.08
2016-10-04T05:20:59.802Z,1015.11
2016-10-04T05:21:59.820Z,1015.09
2016-10-04T05:22:59.838Z,1015.05
2016-10-04T05:23:59.859Z,1015.05
2016-10-04T05:24:59.874Z,1015.02
2016-10-04T05:25:59.894Z,1015.05
2016-10-04T05:26:59.908Z,1015.06
2016-10-04T05:27:59.925Z,1015.07
2016-10-04T05:28:59.945Z,1015.07
2016-10-04T05:29:59.959Z,1015.02
2016-10-04T05:30:59.977Z,1015.06
2016-10-04T05:32:00.000Z,1015.08
2016-10-04T05:33:00.012Z,1015.12
2016-10-04T05:34:00.030Z,1015.09
2016-10-04T05:35:00.043Z,1015.13
2016-10-04T05:36:00.064Z,1015.06
2016-10-04T05:37:00.076Z,1015.11
2016-10-04T05:38:00.098Z,1015.1
2016-10-04T05:39:00.114Z,1015.14
2016-10-04T05:40:00.132Z,1015.1
2016-10-04T05:41:00.148Z,1015.07
2016-10-04T05:42:00.164Z,1015.1
2016-10-04T05:43:00.182Z,1015.11
2016-10-04T05:44:00.197Z,1015.1
2016-10-04T05:45:00.215Z,1015.1
2016-10-04T05:46:00.233Z,1015.11
2016-10-04T05:47:00.245Z,1015.14
2016-10-04T05:48:00.264Z,1015.11
2016-10-04T05:49:00.284Z,1015.08
2016-10-04T05:50:00.296Z,1015.1
2016-10-04T05:51:00.315Z,1015.11
2016-10-04T05:52:00.337Z,1015.12
2016-10-04T05:53:00.350Z,1015.1
2016-10-04T05:54:00.368Z,1015.12
2016-10-04T05:55:00.385Z,1015.12
2016-10-04T05:56:00.402Z,1015.08
2016-10-04T05:57:00.422Z,1015.13
2016-10-04T05:58:00.436Z,1015.13
2016-10-04T05:59:00.453Z,1015.14
2016-10-04T06:00:00.469Z,1015.11
2016-10-04T06:01:00.490Z,1015.1
2016-10-04T06:02:00.507Z,1015.11
2016-10-04T06:03:00.523Z,1015.11
2016-10-04T06:04:00.542Z,1015.11
2016-10-04T06:05:00.554Z,1015.13
2016-10-04T06:06:00.577Z,1015.14
2016-10-04T06:07:00.589Z,1015.18
2016-10-04T06:08:00.609Z,1015.17
2016-10-04T06:09:00.626Z,1015.19
2016-10-04T06:10:00.637Z,1015.21
2016-10-04T06:11:00.654Z,1015.21
2016-10-04T06:12:00.674Z,1015.25
2016-10-04T06:13:00.693Z,1015.26
2016-10-04T06:14:00.714Z,1015.29
2016-10-04T06:15:00.731Z,1015.31
2016-10-04T06:16:00.748Z,1015.29
2016-10-04T06:17:00.760Z,1015.29
2016-10-04T06:18:00.782Z,1015.35
2016-10-04T06:19:00.796Z,1015.34
2016-10-04T06:20:00.816Z,1015.4
2016-10-04T06:21:00.828Z,1015.39
2016-10-04T06:22:00.851Z,1015.43
2016-10-04T06:23:00.871Z,1015.41
2016-10-04T06:24:00.882Z,1015.5
2016-10-04T06:25:00.906Z,1015.52
2016-10-04T06:26:00.916Z,1015.5
2016-10-04T06:27:00.936Z,1015.5
2016-10-04T06:28:00.958Z,1015.52
2016-10-04T06:29:00.973Z,1015.5
2016-10-04T06:30:00.995Z,1015.56
2016-10-04T06:31:01.004Z,1015.57
2016-10-04T06:32:01.023Z,1015.54
2016-10-04T06:33:01.045Z,1015.53
2016-10-04T06:34:01.063Z,1015.52
2016-10-04T06:35:01.074Z,1015.54
2016-10-04T06:36:01.101Z,1015.54
2016-10-04T06:37:01.116Z,1015.51
2016-10-04T06:38:01.130Z,1015.6
2016-10-04T06:39:01.150Z,1015.62
2016-10-04T06:40:01.163Z,1015.63
2016-10-04T06:41:01.183Z,1015.68
2016-10-04T06:42:01.198Z,1015.68
2016-10-04T06:43:01.219Z,1015.71
2016-10-04T06:44:01.241Z,1015.69
2016-10-04T06:45:01.257Z,1015.74
2016-10-04T06:46:01.271Z,1015.74
2016-10-04T06:47:01.292Z,1015.69
2016-10-04T06:48:01.312Z,1015.76
2016-10-04T06:49:01.328Z,1015.79
2016-10-04T06:50:01.347Z,1015.75
2016-10-04T06:51:01.360Z,1015.74
2016-10-04T06:52:01.378Z,1015.8
2016-10-04T06:53:01.402Z,1015.76
2016-10-04T06:54:01.413Z,1015.75
2016-10-04T06:55:01.432Z,1015.77
2016-10-04T06:56:01.455Z,1015.79
2016-10-04T06:57:01.473Z,1015.83
2016-10-04T06:58:01.486Z,1015.86
2016-10-04T06:59:01.510Z,1015.85
2016-10-04T07:00:01.523Z,1015.87
2016-10-04T07:01:01.544Z,1015.84
2016-10-04T07:02:01.557Z,1015.82
2016-10-04T07:03:01.578Z,1015.8
2016-10-04T07:04:01.598Z,1015.82
2016-10-04T07:05:01.618Z,1015.82
2016-10-04T07:06:01.657Z,1015.85
2016-10-04T07:07:01.656Z,1015.89
2016-10-04T07:08:01.671Z,1015.88
2016-10-04T07:09:01.737Z,1015.88
2016-10-04T07:10:01.710Z,1015.93
2016-10-04T07:11:01.727Z,1015.9
2016-10-04T07:12:01.742Z,1015.95
2016-10-04T07:13:01.807Z,1015.92
2016-10-04T07:14:01.798Z,1015.98
2016-10-04T07:15:01.797Z,1015.98
2016-10-04T07:16:01.820Z,1015.95
2016-10-04T07:17:01.834Z,1016.01
2016-10-04T07:18:01.854Z,1016.03
2016-10-04T07:19:01.875Z,1016.03
2016-10-04T07:20:01.891Z,1016.04
2016-10-04T07:21:01.909Z,1016.05
2016-10-04T07:22:01.924Z,1016.08
2016-10-04T07:23:01.952Z,1016.06
2016-10-04T07:24:01.966Z,1016.06
2016-10-04T07:25:01.985Z,1016.06
2016-10-04T07:26:02.003Z,1016.08
2016-10-04T07:27:02.019Z,1016.09
2016-10-04T07:28:02.035Z,1016.14
2016-10-04T07:29:02.056Z,1016.12
2016-10-04T07:30:02.076Z,1016.09
2016-10-04T07:31:02.093Z,1016.12
2016-10-04T07:32:02.109Z,1016.12
2016-10-04T07:33:02.129Z,1016.12
2016-10-04T07:34:02.151Z,1016.15
2016-10-04T07:35:02.165Z,1016.19
2016-10-04T07:36:02.185Z,1016.2
2016-10-04T07:37:02.205Z,1016.19
2016-10-04T07:38:02.224Z,1016.27
2016-10-04T07:39:02.238Z,1016.3
2016-10-04T07:40:02.260Z,1016.24
2016-10-04T07:41:02.279Z,1016.28
2016-10-04T07:42:02.298Z,1016.33
2016-10-04T07:43:02.317Z,1016.4
2016-10-04T07:44:02.333Z,1016.37
2016-10-04T07:45:02.355Z,1016.46
2016-10-04T07:46:02.370Z,1016.45
2016-10-04T07:47:02.393Z,1016.46
2016-10-04T07:48:02.410Z,1016.44
2016-10-04T07:49:02.425Z,1016.51
2016-10-04T07:50:02.451Z,1016.48
2016-10-04T07:51:02.463Z,1016.51
2016-10-04T07:52:02.486Z,1016.54
2016-10-04T07:53:02.507Z,1016.49
2016-10-04T07:54:02.527Z,1016.52
2016-10-04T07:55:02.546Z,1016.52
2016-10-04T07:56:02.563Z,1016.56
2016-10-04T07:57:02.582Z,1016.58
2016-10-04T07:58:02.599Z,1016.55
2016-10-04T07:59:02.627Z,1016.57
2016-10-04T08:00:02.643Z,1016.61
2016-10-04T08:01:02.657Z,1016.63
2016-10-04T08:02:02.677Z,1016.68
2016-10-04T08:03:02.695Z,1016.66
2016-10-04T08:04:02.719Z,1016.65
2016-10-04T08:05:02.738Z,1016.7
2016-10-04T08:06:02.756Z,1016.77
2016-10-04T08:07:02.774Z,1016.82
2016-10-04T08:08:02.795Z,1016.85
2016-10-04T08:09:02.813Z,1016.89
2016-10-04T08:10:02.832Z,1016.86
2016-10-04T08:11:02.856Z,1016.85
2016-10-04T08:12:02.867Z,1016.9
2016-10-04T08:13:02.892Z,1016.88
2016-10-04T08:14:02.905Z,1016.92
2016-10-04T08:15:02.936Z,1016.87
2016-10-04T08:16:02.946Z,1016.82
2016-10-04T08:17:02.965Z,1016.82
2016-10-04T08:18:02.985Z,1016.84
2016-10-04T08:19:03.000Z,1016.85
2016-10-04T08:20:03.019Z,1016.83
2016-10-04T08:21:03.044Z,1016.74
2016-10-04T08:22:03.063Z,1016.83
2016-10-04T08:23:03.079Z,1016.88
2016-10-04T08:24:03.099Z,1016.86
2016-10-04T08:25:03.119Z,1016.88
2016-10-04T08:26:03.136Z,1016.89
2016-10-04T08:27:03.159Z,1016.88
2016-10-04T08:28:03.175Z,1016.87
2016-10-04T08:29:03.192Z,1016.91
2016-10-04T08:30:03.216Z,1016.91
2016-10-04T08:31:03.236Z,1016.9
2016-10-04T08:32:03.251Z,1016.94
2016-10-04T08:33:03.269Z,1016.91
2016-10-04T08:34:03.285Z,1016.86
2016-10-04T08:35:03.310Z,1016.92
2016-10-04T08:36:03.328Z,1016.9
2016-10-04T08:37:03.347Z,1016.87
2016-10-04T08:38:03.364Z,1016.95
2016-10-04T08:39:03.386Z,1016.96
2016-10-04T08:40:03.402Z,1016.98
2016-10-04T08:41:03.423Z,1016.97
2016-10-04T08:42:03.435Z,1017.03
2016-10-04T08:43:03.461Z,1017
2016-10-04T08:44:03.476Z,1017.02
2016-10-04T08:45:03.494Z,1017.01
2016-10-04T08:46:03.513Z,1017.03
2016-10-04T08:47:03.532Z,1017
2016-10-04T08:48:03.555Z,1017.09
2016-10-04T08:49:03.573Z,1016.98
2016-10-04T08:50:03.593Z,1016.98
2016-10-04T08:51:03.614Z,1017.02
2016-10-04T08:52:03.627Z,1017.06
2016-10-04T08:53:03.651Z,1017.07
2016-10-04T08:54:03.668Z,1017.07
2016-10-04T08:55:03.697Z,1017.13
2016-10-04T08:56:03.703Z,1017.14
2016-10-04T08:57:03.725Z,1017.15
2016-10-04T08:58:03.741Z,1017.18
2016-10-04T08:59:03.764Z,1017.11
2016-10-04T09:00:03.783Z,1017.06
2016-10-04T09:01:03.803Z,1017.14
2016-10-04T09:02:03.818Z,1017.14
2016-10-04T09:03:03.839Z,1017.07
2016-10-04T09:04:03.856Z,1017.09
2016-10-04T09:05:03.873Z,1017.1
2016-10-04T09:06:03.893Z,1017.05
2016-10-04T09:07:03.914Z,1017.05
2016-10-04T09:08:03.931Z,1017.06
2016-10-04T09:09:03.952Z,1016.97
2016-10-04T09:10:03.973Z,1017.07
2016-10-04T09:11:03.991Z,1017.02
2016-10-04T09:12:04.010Z,1017.04
2016-10-04T09:13:04.030Z,1016.99
2016-10-04T09:14:04.049Z,1017.1
2016-10-04T09:15:04.067Z,1017.04
2016-10-04T09:16:04.082Z,1017.02
2016-10-04T09:17:04.102Z,1017.02
2016-10-04T09:18:04.126Z,1017.01
2016-10-04T09:19:04.142Z,1017.05
2016-10-04T09:20:04.162Z,1017.06
2016-10-04T09:21:04.178Z,1016.99
2016-10-04T09:22:04.199Z,1017.05
2016-10-04T09:23:04.227Z,1017.09
2016-10-04T09:24:04.237Z,1017.06
2016-10-04T09:25:04.259Z,1017.05
2016-10-04T09:26:04.272Z,1017.02
2016-10-04T09:27:04.297Z,1017.09
2016-10-04T09:28:04.315Z,1017.05
2016-10-04T09:29:04.335Z,1017.03
2016-10-04T09:30:04.351Z,1017.05
2016-10-04T09:31:04.376Z,1017.1
2016-10-04T09:32:04.392Z,1017.07
2016-10-04T09:33:04.415Z,1017.14
2016-10-04T09:34:04.434Z,1017.11
2016-10-04T09:35:04.455Z,1017.17
2016-10-04T09:36:04.474Z,1017.14
2016-10-04T09:37:04.494Z,1017.13
2016-10-04T09:38:04.515Z,1017.17
2016-10-04T09:39:04.535Z,1017.14
2016-10-04T09:40:04.548Z,1017.23
2016-10-04T09:41:04.575Z,1017.15
2016-10-04T09:42:04.590Z,1017.16
2016-10-04T09:43:04.613Z,1017.16
2016-10-04T09:44:04.632Z,1017.07
2016-10-04T09:45:04.653Z,1017.13
2016-10-04T09:46:04.673Z,1017.09
2016-10-04T09:47:04.695Z,1017.04
2016-10-04T09:48:04.711Z,1017.01
2016-10-04T09:49:04.736Z,1017.02
2016-10-04T09:50:04.758Z,1016.94
2016-10-04T09:51:04.777Z,1016.99
2016-10-04T09:52:04.791Z,1017.01
2016-10-04T09:53:04.821Z,1016.99
2016-10-04T09:54:04.832Z,1017
2016-10-04T09:55:04.856Z,1016.96
2016-10-04T09:56:04.876Z,1017.02
2016-10-04T09:57:04.895Z,1017.03
2016-10-04T09:58:04.921Z,1017.02
2016-10-04T09:59:04.942Z,1017.02
2016-10-04T10:00:04.964Z,1016.86
2016-10-04T10:01:04.981Z,1016.73
2016-10-04T10:02:05.006Z,1016.83
2016-10-04T10:03:05.024Z,1016.82
2016-10-04T10:04:05.046Z,1016.82
2016-10-04T10:05:05.061Z,1016.86
2016-10-04T10:06:05.084Z,1016.96
2016-10-04T10:07:05.105Z,1016.94
2016-10-04T10:08:05.125Z,1016.95
2016-10-04T10:09:05.147Z,1017
2016-10-04T10:10:05.164Z,1017.05
2016-10-04T10:11:05.184Z,1016.99
2016-10-04T10:12:05.204Z,1017.05
2016-10-04T10:13:05.226Z,1016.98
2016-10-04T10:14:05.246Z,1016.92
2016-10-04T10:15:05.263Z,1016.88
2016-10-04T10:16:05.284Z,1016.89
2016-10-04T10:17:05.306Z,1017
2016-10-04T10:18:05.326Z,1017.01
2016-10-04T10:19:05.347Z,1017
2016-10-04T10:20:05.368Z,1016.99
2016-10-04T10:21:05.387Z,1017.02
2016-10-04T10:22:05.406Z,1017
2016-10-04T10:23:05.423Z,1017.03
2016-10-04T10:24:05.446Z,1016.96
2016-10-04T10:25:05.468Z,1016.99
2016-10-04T10:26:05.484Z,1017.01
2016-10-04T10:27:05.509Z,1017.02
2016-10-04T10:28:05.522Z,1017.11
2016-10-04T10:29:05.547Z,1017.15
2016-10-04T10:30:05.570Z,1017.05
2016-10-04T10:31:05.590Z,1016.98
2016-10-04T10:32:05.611Z,1017.03
2016-10-04T10:33:05.631Z,1017.05
2016-10-04T10:34:05.653Z,1016.92
2016-10-04T10:35:05.673Z,1017.06
2016-10-04T10:36:05.691Z,1017.05
2016-10-04T10:37:05.711Z,1017.1
2016-10-04T10:38:05.730Z,1017.12
2016-10-04T10:39:05.752Z,1017.04
2016-10-04T10:40:05.770Z,1017.08
2016-10-04T10:41:05.795Z,1017.12
2016-10-04T10:42:05.811Z,1017.07
2016-10-04T10:43:05.827Z,1017.09
2016-10-04T10:44:05.850Z,1017.06
2016-10-04T10:45:05.876Z,1017.09
2016-10-04T10:46:05.891Z,1017.05
2016-10-04T10:47:05.915Z,1017.04
2016-10-04T10:48:05.932Z,1017.03
2016-10-04T10:49:05.952Z,1017.08
2016-10-04T10:50:05.973Z,1017.1
2016-10-04T10:51:05.997Z,1017.14
2016-10-04T10:52:06.012Z,1017.13
2016-10-04T10:53:06.037Z,1017.18
2016-10-04T10:54:06.054Z,1017.17
2016-10-04T10:55:06.073Z,1017.16
2016-10-04T10:56:06.091Z,1017.13
2016-10-04T10:57:06.113Z,1017.2
2016-10-04T10:58:06.137Z,1017.2
2016-10-04T10:59:06.158Z,1017.21
2016-10-04T11:00:06.178Z,1017.27
2016-10-04T11:01:06.191Z,1017.3
2016-10-04T11:02:06.212Z,1017.3
2016-10-04T11:03:06.233Z,1017.3
2016-10-04T11:04:06.258Z,1017.25
2016-10-04T11:05:06.270Z,1017.27
2016-10-04T11:06:06.301Z,1017.28
2016-10-04T11:07:06.312Z,1017.28
2016-10-04T11:08:06.334Z,1017.22
2016-10-04T11:09:06.357Z,1017.19
2016-10-04T11:10:06.375Z,1017.22
2016-10-04T11:11:06.394Z,1017.34
2016-10-04T11:12:06.429Z,1017.2
2016-10-04T11:13:06.434Z,1017.2
2016-10-04T11:14:06.458Z,1017.32
2016-10-04T11:15:06.474Z,1017.23
2016-10-04T11:16:06.497Z,1017.28
2016-10-04T11:17:06.532Z,1017.28
2016-10-04T11:18:06.535Z,1017.3
2016-10-04T11:19:06.557Z,1017.39
2016-10-04T11:20:06.571Z,1017.36
2016-10-04T11:21:06.597Z,1017.39
2016-10-04T11:22:06.617Z,1017.42
2016-10-04T11:23:06.631Z,1017.4
2016-10-04T11:24:06.653Z,1017.41
2016-10-04T11:25:06.674Z,1017.39
2016-10-04T11:26:06.694Z,1017.36
2016-10-04T11:27:06.717Z,1017.31
2016-10-04T11:28:06.731Z,1017.32
2016-10-04T11:29:06.753Z,1017.23
2016-10-04T11:30:06.775Z,1017.24
2016-10-04T11:31:06.798Z,1017.26
2016-10-04T11:32:06.816Z,1017.21
2016-10-04T11:33:06.832Z,1017.26
2016-10-04T11:34:06.857Z,1017.23
2016-10-04T11:35:06.879Z,1017.22
2016-10-04T11:36:06.897Z,1017.24
2016-10-04T11:37:06.921Z,1017.11
2016-10-04T11:38:06.935Z,1017.18
2016-10-04T11:39:06.959Z,1017.23
2016-10-04T11:40:06.983Z,1017.19
2016-10-04T11:41:06.997Z,1017.16
2016-10-04T11:42:07.022Z,1017.22
2016-10-04T11:43:07.045Z,1017.17
2016-10-04T11:44:07.065Z,1017.24
2016-10-04T11:45:07.084Z,1017.19
2016-10-04T11:46:07.107Z,1017.17
2016-10-04T11:47:07.127Z,1017.12
2016-10-04T11:48:07.145Z,1017.17
2016-10-04T11:49:07.169Z,1017.1
2016-10-04T11:50:07.191Z,1017.09
2016-10-04T11:51:07.207Z,1017.11
2016-10-04T11:52:07.230Z,1017.12
2016-10-04T11:53:07.252Z,1017.1
2016-10-04T11:54:07.273Z,1017.02
2016-10-04T11:55:07.294Z,1017.1
2016-10-04T11:56:07.318Z,1017.14
2016-10-04T11:57:07.337Z,1017.14
2016-10-04T11:58:07.351Z,1017.11
2016-10-04T11:59:07.382Z,1017.12
2016-10-04T12:00:07.399Z,1017.28
2016-10-04T12:01:07.423Z,1017.19
2016-10-04T12:02:07.439Z,1017.14
2016-10-04T12:03:07.464Z,1017.24
2016-10-04T12:04:07.508Z,1017.21
2016-10-04T12:05:07.505Z,1017.26
2016-10-04T12:06:07.528Z,1017.17
2016-10-04T12:07:07.549Z,1017.15
2016-10-04T12:08:07.569Z,1017.23
2016-10-04T12:09:07.586Z,1017.2
2016-10-04T12:10:07.606Z,1017.25